Terminal Aerodrome Forecast
Issued by NWS

Home | Current Version | Previous Version | Text Only | Print | Product List | Glossary On
Versions: 1 2 3 4 5 6 7 8 9 10 11 12 13 14 15 16 17 18 19 20 21 22 23 24 25 26 27 28 29 30 31
000
FTUS46 KLOX 231126
TAFLAX
TAF
KLAX 231126Z 2312/2418 26006KT P6SM OVC012
     FM231900 26012KT P6SM FEW015
     FM240400 VRB03KT P6SM OVC012
     FM241600 25007KT P6SM OVC015=

USA.gov is the U.S. government's official web portal to all federal, state and local government web resources and services.